sensor_id;sensor_type;location;lat;lon;timestamp;temperature;humidity
851;DHT22;412;51.400;7.480;2022-09-17T00:01:58;14.90;99.90
851;DHT22;412;51.400;7.480;2022-09-17T00:04:23;15.00;99.90
851;DHT22;412;51.400;7.480;2022-09-17T00:06:49;14.90;99.90
851;DHT22;412;51.400;7.480;2022-09-17T00:09:15;14.90;99.90
851;DHT22;412;51.400;7.480;2022-09-17T00:11:42;15.00;99.90
851;DHT22;412;51.400;7.480;2022-09-17T00:14:13;15.00;99.90
851;DHT22;412;51.400;7.480;2022-09-17T00:16:42;15.00;99.90
851;DHT22;412;51.400;7.480;2022-09-17T00:19:20;15.00;99.90
851;DHT22;412;51.400;7.480;2022-09-17T00:21:47;15.00;99.90
851;DHT22;412;51.400;7.480;2022-09-17T00:24:16;15.00;99.90
851;DHT22;412;51.400;7.480;2022-09-17T00:26:43;15.10;99.90
851;DHT22;412;51.400;7.480;2022-09-17T00:29:09;15.10;99.90
851;DHT22;412;51.400;7.480;2022-09-17T00:31:35;15.10;99.90
851;DHT22;412;51.400;7.480;2022-09-17T00:34:02;15.10;99.90
851;DHT22;412;51.400;7.480;2022-09-17T00:36:28;15.10;99.90
851;DHT22;412;51.400;7.480;2022-09-17T00:38:58;15.00;99.90
851;DHT22;412;51.400;7.480;2022-09-17T00:41:29;15.00;99.90
851;DHT22;412;51.400;7.480;2022-09-17T00:44:34;15.00;99.90
851;DHT22;412;51.400;7.480;2022-09-17T00:46:46;15.00;99.90
851;DHT22;412;51.400;7.480;2022-09-17T00:49:18;15.00;99.90
851;DHT22;412;51.400;7.480;2022-09-17T00:51:52;15.00;99.90
851;DHT22;412;51.400;7.480;2022-09-17T00:54:20;15.00;99.90
851;DHT22;412;51.400;7.480;2022-09-17T00:56:46;15.00;99.90
851;DHT22;412;51.400;7.480;2022-09-17T00:59:13;14.90;99.90
851;DHT22;412;51.400;7.480;2022-09-17T01:01:39;14.90;99.90
851;DHT22;412;51.400;7.480;2022-09-17T01:04:05;14.90;99.90
851;DHT22;412;51.400;7.480;2022-09-17T01:06:43;14.90;99.90
851;DHT22;412;51.400;7.480;2022-09-17T01:10:07;14.90;99.90
851;DHT22;412;51.400;7.480;2022-09-17T01:12:16;15.00;99.90
851;DHT22;412;51.400;7.480;2022-09-17T01:28:44;14.80;99.90
851;DHT22;412;51.400;7.480;2022-09-17T01:31:27;14.80;99.90
851;DHT22;412;51.400;7.480;2022-09-17T01:39:29;14.70;99.90
851;DHT22;412;51.400;7.480;2022-09-17T01:47:40;14.80;99.90
851;DHT22;412;51.400;7.480;2022-09-17T01:50:12;14.90;99.90
851;DHT22;412;51.400;7.480;2022-09-17T01:52:43;14.90;99.90
851;DHT22;412;51.400;7.480;2022-09-17T01:55:12;14.90;99.90
851;DHT22;412;51.400;7.480;2022-09-17T02:00:12;14.70;99.90
851;DHT22;412;51.400;7.480;2022-09-17T02:02:56;14.70;99.90
851;DHT22;412;51.400;7.480;2022-09-17T02:05:29;14.70;99.90
851;DHT22;412;51.400;7.480;2022-09-17T02:08:00;14.60;99.90
851;DHT22;412;51.400;7.480;2022-09-17T02:10:32;14.60;99.90
851;DHT22;412;51.400;7.480;2022-09-17T02:13:09;14.70;99.90
851;DHT22;412;51.400;7.480;2022-09-17T02:15:41;14.60;99.90
851;DHT22;412;51.400;7.480;2022-09-17T02:20:53;14.60;99.90
851;DHT22;412;51.400;7.480;2022-09-17T02:23:27;14.70;99.90
851;DHT22;412;51.400;7.480;2022-09-17T02:26:03;14.80;99.90
851;DHT22;412;51.400;7.480;2022-09-17T02:28:47;14.80;99.90
851;DHT22;412;51.400;7.480;2022-09-17T02:31:14;14.80;99.90
851;DHT22;412;51.400;7.480;2022-09-17T02:33:42;14.80;99.90
851;DHT22;412;51.400;7.480;2022-09-17T02:36:09;14.90;99.90
851;DHT22;412;51.400;7.480;2022-09-17T02:38:40;14.90;99.90
851;DHT22;412;51.400;7.480;2022-09-17T02:41:18;14.90;99.90
851;DHT22;412;51.400;7.480;2022-09-17T02:44:07;14.90;99.90
851;DHT22;412;51.400;7.480;2022-09-17T02:55:11;14.70;99.90
851;DHT22;412;51.400;7.480;2022-09-17T02:57:47;14.80;99.90
851;DHT22;412;51.400;7.480;2022-09-17T03:00:18;14.80;99.90
851;DHT22;412;51.400;7.480;2022-09-17T03:02:50;14.80;99.90
851;DHT22;412;51.400;7.480;2022-09-17T03:05:19;14.80;99.90
851;DHT22;412;51.400;7.480;2022-09-17T03:07:46;14.80;99.90
851;DHT22;412;51.400;7.480;2022-09-17T03:10:12;14.80;99.90
851;DHT22;412;51.400;7.480;2022-09-17T03:12:38;14.80;99.90
851;DHT22;412;51.400;7.480;2022-09-17T03:15:04;14.80;99.90
851;DHT22;412;51.400;7.480;2022-09-17T03:17:30;14.70;99.90
851;DHT22;412;51.400;7.480;2022-09-17T03:19:56;14.80;99.90
851;DHT22;412;51.400;7.480;2022-09-17T03:22:22;14.70;99.90
851;DHT22;412;51.400;7.480;2022-09-17T03:24:48;14.80;99.90
851;DHT22;412;51.400;7.480;2022-09-17T03:27:14;14.70;99.90
851;DHT22;412;51.400;7.480;2022-09-17T03:29:39;14.80;99.90
851;DHT22;412;51.400;7.480;2022-09-17T03:32:06;14.80;99.90
851;DHT22;412;51.400;7.480;2022-09-17T03:34:32;14.80;99.90
851;DHT22;412;51.400;7.480;2022-09-17T03:36:57;14.80;99.90
851;DHT22;412;51.400;7.480;2022-09-17T03:39:23;14.80;99.90
851;DHT22;412;51.400;7.480;2022-09-17T03:41:49;14.90;99.90
851;DHT22;412;51.400;7.480;2022-09-17T03:44:16;14.90;99.90
851;DHT22;412;51.400;7.480;2022-09-17T03:46:44;14.90;99.90
851;DHT22;412;51.400;7.480;2022-09-17T03:49:10;14.90;99.90
851;DHT22;412;51.400;7.480;2022-09-17T03:51:35;14.80;99.90
851;DHT22;412;51.400;7.480;2022-09-17T03:54:01;14.80;99.90
851;DHT22;412;51.400;7.480;2022-09-17T03:56:27;14.80;99.90
851;DHT22;412;51.400;7.480;2022-09-17T03:59:02;14.80;99.90
851;DHT22;412;51.400;7.480;2022-09-17T04:01:28;14.80;99.90
851;DHT22;412;51.400;7.480;2022-09-17T04:03:54;14.90;99.90
851;DHT22;412;51.400;7.480;2022-09-17T04:06:20;14.90;99.90
851;DHT22;412;51.400;7.480;2022-09-17T04:08:45;14.80;99.90
851;DHT22;412;51.400;7.480;2022-09-17T04:11:11;14.80;99.90
851;DHT22;412;51.400;7.480;2022-09-17T04:13:37;14.80;99.90
851;DHT22;412;51.400;7.480;2022-09-17T04:16:03;14.80;99.90
851;DHT22;412;51.400;7.480;2022-09-17T04:18:29;14.80;99.90
851;DHT22;412;51.400;7.480;2022-09-17T04:20:55;14.80;99.90
851;DHT22;412;51.400;7.480;2022-09-17T04:23:21;14.80;99.90
851;DHT22;412;51.400;7.480;2022-09-17T04:25:48;14.80;99.90
851;DHT22;412;51.400;7.480;2022-09-17T04:28:13;14.80;99.90
851;DHT22;412;51.400;7.480;2022-09-17T04:30:39;14.80;99.90
851;DHT22;412;51.400;7.480;2022-09-17T04:33:07;14.70;99.90
851;DHT22;412;51.400;7.480;2022-09-17T04:35:33;14.70;99.90
851;DHT22;412;51.400;7.480;2022-09-17T04:37:59;14.70;99.90
851;DHT22;412;51.400;7.480;2022-09-17T04:40:26;14.70;99.90
851;DHT22;412;51.400;7.480;2022-09-17T04:42:55;14.70;99.90
851;DHT22;412;51.400;7.480;2022-09-17T04:45:22;14.70;99.90
851;DHT22;412;51.400;7.480;2022-09-17T04:47:48;14.70;99.90
851;DHT22;412;51.400;7.480;2022-09-17T04:50:17;14.70;99.90
851;DHT22;412;51.400;7.480;2022-09-17T04:52:44;14.70;99.90
851;DHT22;412;51.400;7.480;2022-09-17T04:55:10;14.70;99.90
851;DHT22;412;51.400;7.480;2022-09-17T04:57:36;14.70;99.90
851;DHT22;412;51.400;7.480;2022-09-17T05:00:06;14.70;99.90
851;DHT22;412;51.400;7.480;2022-09-17T05:02:35;14.70;99.90
851;DHT22;412;51.400;7.480;2022-09-17T05:05:01;14.70;99.90
851;DHT22;412;51.400;7.480;2022-09-17T05:07:26;14.70;99.90
851;DHT22;412;51.400;7.480;2022-09-17T05:09:55;14.70;99.90
851;DHT22;412;51.400;7.480;2022-09-17T05:12:20;14.70;99.90
851;DHT22;412;51.400;7.480;2022-09-17T05:14:46;14.70;99.90
851;DHT22;412;51.400;7.480;2022-09-17T05:17:12;14.80;99.90
851;DHT22;412;51.400;7.480;2022-09-17T05:19:37;14.70;99.90
851;DHT22;412;51.400;7.480;2022-09-17T05:22:03;14.80;99.90
851;DHT22;412;51.400;7.480;2022-09-17T05:24:29;14.80;99.90
851;DHT22;412;51.400;7.480;2022-09-17T05:26:55;14.80;99.90
851;DHT22;412;51.400;7.480;2022-09-17T05:29:21;14.80;99.90
851;DHT22;412;51.400;7.480;2022-09-17T05:31:46;14.80;99.90
851;DHT22;412;51.400;7.480;2022-09-17T05:34:12;14.80;99.90
851;DHT22;412;51.400;7.480;2022-09-17T05:36:38;14.90;99.90
851;DHT22;412;51.400;7.480;2022-09-17T05:39:03;14.90;99.90
851;DHT22;412;51.400;7.480;2022-09-17T05:41:29;14.90;99.90
851;DHT22;412;51.400;7.480;2022-09-17T05:43:55;14.90;99.90
851;DHT22;412;51.400;7.480;2022-09-17T05:46:22;14.90;99.90
851;DHT22;412;51.400;7.480;2022-09-17T05:48:47;14.90;99.90
851;DHT22;412;51.400;7.480;2022-09-17T05:51:13;14.80;99.90
851;DHT22;412;51.400;7.480;2022-09-17T05:53:39;14.90;99.90
851;DHT22;412;51.400;7.480;2022-09-17T05:56:05;14.90;99.90
851;DHT22;412;51.400;7.480;2022-09-17T05:58:30;14.90;99.90
851;DHT22;412;51.400;7.480;2022-09-17T06:01:01;14.90;99.90
851;DHT22;412;51.400;7.480;2022-09-17T06:03:27;15.00;99.90
851;DHT22;412;51.400;7.480;2022-09-17T06:05:57;15.00;99.90
851;DHT22;412;51.400;7.480;2022-09-17T06:08:24;15.00;99.90
851;DHT22;412;51.400;7.480;2022-09-17T06:10:50;15.00;99.90
851;DHT22;412;51.400;7.480;2022-09-17T06:13:19;15.00;99.90
851;DHT22;412;51.400;7.480;2022-09-17T06:15:49;15.00;99.90
851;DHT22;412;51.400;7.480;2022-09-17T06:18:15;15.00;99.90
851;DHT22;412;51.400;7.480;2022-09-17T06:20:41;15.00;99.90
851;DHT22;412;51.400;7.480;2022-09-17T06:23:07;15.00;99.90
851;DHT22;412;51.400;7.480;2022-09-17T06:25:33;15.10;99.90
851;DHT22;412;51.400;7.480;2022-09-17T06:28:01;15.10;99.90
851;DHT22;412;51.400;7.480;2022-09-17T06:30:27;15.10;99.90
851;DHT22;412;51.400;7.480;2022-09-17T06:32:53;15.20;99.90
851;DHT22;412;51.400;7.480;2022-09-17T06:35:19;15.70;99.90
851;DHT22;412;51.400;7.480;2022-09-17T06:37:44;16.40;99.90
851;DHT22;412;51.400;7.480;2022-09-17T06:40:10;16.90;99.90
851;DHT22;412;51.400;7.480;2022-09-17T06:42:36;17.40;99.90
851;DHT22;412;51.400;7.480;2022-09-17T06:45:02;17.70;99.90
851;DHT22;412;51.400;7.480;2022-09-17T06:47:28;18.00;99.80
851;DHT22;412;51.400;7.480;2022-09-17T06:49:54;18.10;98.70
851;DHT22;412;51.400;7.480;2022-09-17T06:52:21;18.10;98.40
851;DHT22;412;51.400;7.480;2022-09-17T06:54:47;18.20;97.90
851;DHT22;412;51.400;7.480;2022-09-17T06:57:13;18.20;97.80
851;DHT22;412;51.400;7.480;2022-09-17T06:59:39;18.20;97.50
851;DHT22;412;51.400;7.480;2022-09-17T07:02:05;18.30;97.60
851;DHT22;412;51.400;7.480;2022-09-17T07:04:31;18.40;97.00
851;DHT22;412;51.400;7.480;2022-09-17T07:06:56;18.30;95.60
851;DHT22;412;51.400;7.480;2022-09-17T07:09:22;18.30;97.10
851;DHT22;412;51.400;7.480;2022-09-17T07:11:48;18.40;97.00
851;DHT22;412;51.400;7.480;2022-09-17T07:14:13;18.30;96.10
851;DHT22;412;51.400;7.480;2022-09-17T07:16:39;18.20;95.00
851;DHT22;412;51.400;7.480;2022-09-17T07:19:05;18.10;97.10
851;DHT22;412;51.400;7.480;2022-09-17T07:21:31;18.10;97.10
851;DHT22;412;51.400;7.480;2022-09-17T07:23:57;18.30;96.70
851;DHT22;412;51.400;7.480;2022-09-17T07:26:23;18.40;96.20
851;DHT22;412;51.400;7.480;2022-09-17T07:28:48;18.50;96.10
851;DHT22;412;51.400;7.480;2022-09-17T07:31:14;18.60;94.80
851;DHT22;412;51.400;7.480;2022-09-17T07:33:40;18.30;95.20
851;DHT22;412;51.400;7.480;2022-09-17T07:36:11;18.10;96.50
851;DHT22;412;51.400;7.480;2022-09-17T07:38:38;18.10;96.70
851;DHT22;412;51.400;7.480;2022-09-17T07:41:09;18.10;96.50
851;DHT22;412;51.400;7.480;2022-09-17T07:43:37;18.40;96.00
851;DHT22;412;51.400;7.480;2022-09-17T07:46:04;18.50;95.30
851;DHT22;412;51.400;7.480;2022-09-17T07:48:30;18.50;95.50
851;DHT22;412;51.400;7.480;2022-09-17T07:50:57;18.50;95.10
851;DHT22;412;51.400;7.480;2022-09-17T07:53:23;18.50;94.80
851;DHT22;412;51.400;7.480;2022-09-17T07:55:58;18.50;94.90
851;DHT22;412;51.400;7.480;2022-09-17T07:58:32;18.50;95.10
851;DHT22;412;51.400;7.480;2022-09-17T08:01:09;18.50;95.00
851;DHT22;412;51.400;7.480;2022-09-17T08:03:36;18.60;94.80
851;DHT22;412;51.400;7.480;2022-09-17T08:06:07;18.60;94.50
851;DHT22;412;51.400;7.480;2022-09-17T08:08:33;18.50;94.80
851;DHT22;412;51.400;7.480;2022-09-17T08:11:06;18.60;94.70
851;DHT22;412;51.400;7.480;2022-09-17T08:13:32;18.50;94.40
851;DHT22;412;51.400;7.480;2022-09-17T08:16:00;18.50;95.40
851;DHT22;412;51.400;7.480;2022-09-17T08:18:26;18.60;95.10
851;DHT22;412;51.400;7.480;2022-09-17T08:20:58;18.70;95.30
851;DHT22;412;51.400;7.480;2022-09-17T08:23:25;18.70;95.30
851;DHT22;412;51.400;7.480;2022-09-17T08:25:55;18.70;95.00
851;DHT22;412;51.400;7.480;2022-09-17T08:28:22;18.80;95.00
851;DHT22;412;51.400;7.480;2022-09-17T08:30:50;19.00;94.60
851;DHT22;412;51.400;7.480;2022-09-17T08:33:16;19.10;93.90
851;DHT22;412;51.400;7.480;2022-09-17T08:35:53;19.20;93.60
851;DHT22;412;51.400;7.480;2022-09-17T08:38:19;19.20;93.40
851;DHT22;412;51.400;7.480;2022-09-17T08:43:54;19.30;93.40
851;DHT22;412;51.400;7.480;2022-09-17T08:46:24;19.20;93.20
851;DHT22;412;51.400;7.480;2022-09-17T08:54:44;19.10;93.10
851;DHT22;412;51.400;7.480;2022-09-17T08:57:38;19.10;92.80
851;DHT22;412;51.400;7.480;2022-09-17T09:00:11;19.20;91.30
851;DHT22;412;51.400;7.480;2022-09-17T09:08:09;19.30;90.00
851;DHT22;412;51.400;7.480;2022-09-17T09:10:45;19.20;90.40
851;DHT22;412;51.400;7.480;2022-09-17T09:13:15;19.40;90.30
851;DHT22;412;51.400;7.480;2022-09-17T09:16:09;19.40;89.30
851;DHT22;412;51.400;7.480;2022-09-17T09:18:39;19.30;90.10
851;DHT22;412;51.400;7.480;2022-09-17T09:21:25;19.40;90.00
851;DHT22;412;51.400;7.480;2022-09-17T09:24:22;19.40;89.00
851;DHT22;412;51.400;7.480;2022-09-17T09:27:01;19.50;89.00
851;DHT22;412;51.400;7.480;2022-09-17T09:30:14;19.50;89.30
851;DHT22;412;51.400;7.480;2022-09-17T09:35:18;19.30;89.60
851;DHT22;412;51.400;7.480;2022-09-17T09:40:42;19.20;90.00
851;DHT22;412;51.400;7.480;2022-09-17T09:56:57;19.60;84.00
851;DHT22;412;51.400;7.480;2022-09-17T09:59:24;19.70;83.90
851;DHT22;412;51.400;7.480;2022-09-17T10:01:51;19.50;84.20
851;DHT22;412;51.400;7.480;2022-09-17T10:04:25;19.50;84.00
851;DHT22;412;51.400;7.480;2022-09-17T10:07:05;19.60;84.00
851;DHT22;412;51.400;7.480;2022-09-17T10:09:33;19.80;83.00
851;DHT22;412;51.400;7.480;2022-09-17T10:14:39;19.80;82.60
851;DHT22;412;51.400;7.480;2022-09-17T10:17:25;19.90;82.20
851;DHT22;412;51.400;7.480;2022-09-17T10:22:44;19.80;81.70
851;DHT22;412;51.400;7.480;2022-09-17T10:25:29;19.80;81.70
851;DHT22;412;51.400;7.480;2022-09-17T10:27:57;19.80;80.90
851;DHT22;412;51.400;7.480;2022-09-17T10:30:23;19.90;80.20
851;DHT22;412;51.400;7.480;2022-09-17T10:33:16;19.90;80.20
851;DHT22;412;51.400;7.480;2022-09-17T10:35:54;19.80;79.00
851;DHT22;412;51.400;7.480;2022-09-17T10:38:35;19.80;79.20
851;DHT22;412;51.400;7.480;2022-09-17T10:41:26;19.90;78.60
851;DHT22;412;51.400;7.480;2022-09-17T10:43:52;20.00;77.50
851;DHT22;412;51.400;7.480;2022-09-17T10:46:22;20.00;76.50
851;DHT22;412;51.400;7.480;2022-09-17T11:00:21;20.20;73.90
851;DHT22;412;51.400;7.480;2022-09-17T11:08:44;20.20;72.20
851;DHT22;412;51.400;7.480;2022-09-17T11:11:27;20.10;72.20
851;DHT22;412;51.400;7.480;2022-09-17T11:20:05;19.50;76.60
851;DHT22;412;51.400;7.480;2022-09-17T11:25:46;19.40;76.80
851;DHT22;412;51.400;7.480;2022-09-17T11:36:23;19.80;76.80
851;DHT22;412;51.400;7.480;2022-09-17T11:38:50;19.80;77.30
851;DHT22;412;51.400;7.480;2022-09-17T11:41:24;19.90;76.90
851;DHT22;412;51.400;7.480;2022-09-17T11:46:47;19.70;79.70
851;DHT22;412;51.400;7.480;2022-09-17T11:57:37;19.30;81.10
851;DHT22;412;51.400;7.480;2022-09-17T12:00:11;19.30;81.10
851;DHT22;412;51.400;7.480;2022-09-17T12:02:50;19.40;80.20
851;DHT22;412;51.400;7.480;2022-09-17T12:08:08;19.70;79.60
851;DHT22;412;51.400;7.480;2022-09-17T12:16:12;19.90;78.30
851;DHT22;412;51.400;7.480;2022-09-17T12:24:25;19.50;80.10
851;DHT22;412;51.400;7.480;2022-09-17T12:34:56;19.40;81.90
851;DHT22;412;51.400;7.480;2022-09-17T12:37:47;19.40;81.00
851;DHT22;412;51.400;7.480;2022-09-17T12:46:11;19.20;81.30
851;DHT22;412;51.400;7.480;2022-09-17T12:51:31;19.20;83.30
851;DHT22;412;51.400;7.480;2022-09-17T12:57:18;19.00;88.30
851;DHT22;412;51.400;7.480;2022-09-17T13:00:07;19.20;86.20
851;DHT22;412;51.400;7.480;2022-09-17T13:11:03;19.10;89.00
851;DHT22;412;51.400;7.480;2022-09-17T13:24:00;19.00;90.20
851;DHT22;412;51.400;7.480;2022-09-17T13:26:35;19.10;90.10
851;DHT22;412;51.400;7.480;2022-09-17T13:29:02;19.20;89.60
851;DHT22;412;51.400;7.480;2022-09-17T13:39:43;19.20;87.80
851;DHT22;412;51.400;7.480;2022-09-17T13:42:27;19.10;89.90
851;DHT22;412;51.400;7.480;2022-09-17T13:45:13;19.00;90.70
851;DHT22;412;51.400;7.480;2022-09-17T13:48:08;19.10;91.40
851;DHT22;412;51.400;7.480;2022-09-17T13:50:43;19.10;91.50
851;DHT22;412;51.400;7.480;2022-09-17T13:55:52;19.20;92.40
851;DHT22;412;51.400;7.480;2022-09-17T14:01:03;19.30;93.50
851;DHT22;412;51.400;7.480;2022-09-17T14:10:57;19.00;92.80
851;DHT22;412;51.400;7.480;2022-09-17T14:16:00;18.90;92.90
851;DHT22;412;51.400;7.480;2022-09-17T14:21:38;18.90;93.10
851;DHT22;412;51.400;7.480;2022-09-17T14:23:48;18.80;93.40
851;DHT22;412;51.400;7.480;2022-09-17T14:26:27;18.40;93.20
851;DHT22;412;51.400;7.480;2022-09-17T14:31:47;17.70;94.70
851;DHT22;412;51.400;7.480;2022-09-17T14:34:19;17.50;96.10
851;DHT22;412;51.400;7.480;2022-09-17T14:36:46;17.30;97.20
851;DHT22;412;51.400;7.480;2022-09-17T14:39:35;17.30;97.10
851;DHT22;412;51.400;7.480;2022-09-17T14:42:05;17.20;97.40
851;DHT22;412;51.400;7.480;2022-09-17T14:44:35;17.20;97.80
851;DHT22;412;51.400;7.480;2022-09-17T14:47:05;17.00;98.00
851;DHT22;412;51.400;7.480;2022-09-17T14:49:34;17.00;99.10
851;DHT22;412;51.400;7.480;2022-09-17T14:52:01;17.00;99.50
851;DHT22;412;51.400;7.480;2022-09-17T14:54:31;16.90;98.50
851;DHT22;412;51.400;7.480;2022-09-17T15:02:27;16.90;99.30
851;DHT22;412;51.400;7.480;2022-09-17T15:04:54;17.40;98.10
851;DHT22;412;51.400;7.480;2022-09-17T15:07:21;17.70;97.40
851;DHT22;412;51.400;7.480;2022-09-17T15:09:47;17.60;97.20
851;DHT22;412;51.400;7.480;2022-09-17T15:12:16;17.60;97.50
851;DHT22;412;51.400;7.480;2022-09-17T15:14:44;17.60;97.30
851;DHT22;412;51.400;7.480;2022-09-17T15:17:14;17.60;97.00
851;DHT22;412;51.400;7.480;2022-09-17T15:19:45;17.70;97.00
851;DHT22;412;51.400;7.480;2022-09-17T15:24:55;17.70;96.90
851;DHT22;412;51.400;7.480;2022-09-17T15:27:29;17.50;97.30
851;DHT22;412;51.400;7.480;2022-09-17T15:30:03;17.40;98.00
851;DHT22;412;51.400;7.480;2022-09-17T15:32:30;17.40;98.30
851;DHT22;412;51.400;7.480;2022-09-17T15:35:18;17.30;98.50
851;DHT22;412;51.400;7.480;2022-09-17T15:37:48;17.30;98.50
851;DHT22;412;51.400;7.480;2022-09-17T15:40:36;17.30;99.00
851;DHT22;412;51.400;7.480;2022-09-17T15:43:38;17.40;98.40
851;DHT22;412;51.400;7.480;2022-09-17T15:48:49;17.50;98.20
851;DHT22;412;51.400;7.480;2022-09-17T15:51:26;17.40;98.60
851;DHT22;412;51.400;7.480;2022-09-17T15:54:01;17.40;98.50
851;DHT22;412;51.400;7.480;2022-09-17T15:56:34;17.50;98.30
851;DHT22;412;51.400;7.480;2022-09-17T15:59:03;17.50;98.30
851;DHT22;412;51.400;7.480;2022-09-17T16:04:01;17.50;97.90
851;DHT22;412;51.400;7.480;2022-09-17T16:08:59;17.60;98.30
851;DHT22;412;51.400;7.480;2022-09-17T16:11:29;17.80;97.80
851;DHT22;412;51.400;7.480;2022-09-17T16:13:59;17.90;97.30
851;DHT22;412;51.400;7.480;2022-09-17T16:16:43;18.10;96.60
851;DHT22;412;51.400;7.480;2022-09-17T16:19:09;18.30;95.70
851;DHT22;412;51.400;7.480;2022-09-17T16:21:35;18.40;95.70
851;DHT22;412;51.400;7.480;2022-09-17T16:24:00;18.50;94.50
851;DHT22;412;51.400;7.480;2022-09-17T16:26:31;18.40;94.30
851;DHT22;412;51.400;7.480;2022-09-17T16:29:02;18.40;93.70
851;DHT22;412;51.400;7.480;2022-09-17T16:31:29;18.30;93.70
851;DHT22;412;51.400;7.480;2022-09-17T16:33:55;18.30;93.70
851;DHT22;412;51.400;7.480;2022-09-17T16:36:21;18.30;93.50
851;DHT22;412;51.400;7.480;2022-09-17T16:38:47;18.30;92.80
851;DHT22;412;51.400;7.480;2022-09-17T16:41:13;18.10;93.30
851;DHT22;412;51.400;7.480;2022-09-17T16:43:38;18.20;92.40
851;DHT22;412;51.400;7.480;2022-09-17T16:46:09;18.20;92.30
851;DHT22;412;51.400;7.480;2022-09-17T16:48:35;18.00;92.50
851;DHT22;412;51.400;7.480;2022-09-17T16:51:09;18.10;92.40
851;DHT22;412;51.400;7.480;2022-09-17T16:53:35;18.00;92.20
851;DHT22;412;51.400;7.480;2022-09-17T16:56:04;18.10;92.10
851;DHT22;412;51.400;7.480;2022-09-17T16:58:31;18.20;91.90
851;DHT22;412;51.400;7.480;2022-09-17T17:00:57;18.20;92.00
851;DHT22;412;51.400;7.480;2022-09-17T17:03:22;18.20;91.70
851;DHT22;412;51.400;7.480;2022-09-17T17:05:48;18.00;92.10
851;DHT22;412;51.400;7.480;2022-09-17T17:08:14;18.00;92.30
851;DHT22;412;51.400;7.480;2022-09-17T17:10:39;18.10;92.40
851;DHT22;412;51.400;7.480;2022-09-17T17:13:06;18.10;92.30
851;DHT22;412;51.400;7.480;2022-09-17T17:15:32;18.00;92.50
851;DHT22;412;51.400;7.480;2022-09-17T17:17:57;18.00;92.70
851;DHT22;412;51.400;7.480;2022-09-17T17:20:23;18.00;92.90
851;DHT22;412;51.400;7.480;2022-09-17T17:22:49;18.00;93.40
851;DHT22;412;51.400;7.480;2022-09-17T17:25:17;18.00;92.80
851;DHT22;412;51.400;7.480;2022-09-17T17:27:43;18.10;92.50
851;DHT22;412;51.400;7.480;2022-09-17T17:30:09;18.10;92.20
851;DHT22;412;51.400;7.480;2022-09-17T17:32:41;17.90;92.80
851;DHT22;412;51.400;7.480;2022-09-17T17:35:07;17.80;93.00
851;DHT22;412;51.400;7.480;2022-09-17T17:37:33;17.70;93.10
851;DHT22;412;51.400;7.480;2022-09-17T17:39:59;17.70;93.20
851;DHT22;412;51.400;7.480;2022-09-17T17:42:26;17.70;93.50
851;DHT22;412;51.400;7.480;2022-09-17T17:44:52;17.80;93.00
851;DHT22;412;51.400;7.480;2022-09-17T17:47:20;17.80;93.10
851;DHT22;412;51.400;7.480;2022-09-17T17:49:45;17.70;93.00
851;DHT22;412;51.400;7.480;2022-09-17T17:52:13;17.50;92.70
851;DHT22;412;51.400;7.480;2022-09-17T17:54:38;17.30;93.00
851;DHT22;412;51.400;7.480;2022-09-17T17:57:04;17.20;93.30
851;DHT22;412;51.400;7.480;2022-09-17T17:59:30;17.00;93.60
851;DHT22;412;51.400;7.480;2022-09-17T18:01:55;16.80;94.50
851;DHT22;412;51.400;7.480;2022-09-17T18:04:21;16.70;94.60
851;DHT22;412;51.400;7.480;2022-09-17T18:06:47;16.60;94.90
851;DHT22;412;51.400;7.480;2022-09-17T18:09:13;16.40;95.00
851;DHT22;412;51.400;7.480;2022-09-17T18:11:39;16.30;96.00
851;DHT22;412;51.400;7.480;2022-09-17T18:14:05;16.10;95.70
851;DHT22;412;51.400;7.480;2022-09-17T18:16:31;16.10;95.90
851;DHT22;412;51.400;7.480;2022-09-17T18:18:56;16.00;96.30
851;DHT22;412;51.400;7.480;2022-09-17T18:21:23;15.90;96.80
851;DHT22;412;51.400;7.480;2022-09-17T18:23:49;15.90;97.50
851;DHT22;412;51.400;7.480;2022-09-17T18:26:20;15.80;97.10
851;DHT22;412;51.400;7.480;2022-09-17T18:28:47;15.80;97.10
851;DHT22;412;51.400;7.480;2022-09-17T18:31:28;15.70;97.30
851;DHT22;412;51.400;7.480;2022-09-17T18:34:05;15.70;98.00
851;DHT22;412;51.400;7.480;2022-09-17T18:36:33;15.70;98.00
851;DHT22;412;51.400;7.480;2022-09-17T18:39:01;15.60;98.10
851;DHT22;412;51.400;7.480;2022-09-17T18:41:29;15.60;98.10
851;DHT22;412;51.400;7.480;2022-09-17T18:43:56;15.60;98.70
851;DHT22;412;51.400;7.480;2022-09-17T18:46:24;15.60;98.70
851;DHT22;412;51.400;7.480;2022-09-17T18:48:54;15.60;98.70
851;DHT22;412;51.400;7.480;2022-09-17T18:51:20;15.60;98.50
851;DHT22;412;51.400;7.480;2022-09-17T18:53:46;15.60;98.40
851;DHT22;412;51.400;7.480;2022-09-17T18:58:47;15.60;99.20
851;DHT22;412;51.400;7.480;2022-09-17T19:01:14;15.60;99.30
851;DHT22;412;51.400;7.480;2022-09-17T19:03:40;15.60;99.40
851;DHT22;412;51.400;7.480;2022-09-17T19:06:08;15.60;99.00
851;DHT22;412;51.400;7.480;2022-09-17T19:08:34;15.70;99.50
851;DHT22;412;51.400;7.480;2022-09-17T19:11:00;15.70;99.70
851;DHT22;412;51.400;7.480;2022-09-17T19:13:35;15.70;99.80
851;DHT22;412;51.400;7.480;2022-09-17T19:16:03;15.60;99.90
851;DHT22;412;51.400;7.480;2022-09-17T19:18:29;15.60;99.90
851;DHT22;412;51.400;7.480;2022-09-17T19:20:59;15.70;99.90
851;DHT22;412;51.400;7.480;2022-09-17T19:23:25;15.80;99.90
851;DHT22;412;51.400;7.480;2022-09-17T19:25:50;15.80;99.90
851;DHT22;412;51.400;7.480;2022-09-17T19:28:16;15.80;99.90
851;DHT22;412;51.400;7.480;2022-09-17T19:30:44;15.80;99.90
851;DHT22;412;51.400;7.480;2022-09-17T19:33:09;15.80;99.90
851;DHT22;412;51.400;7.480;2022-09-17T19:35:35;15.80;99.90
851;DHT22;412;51.400;7.480;2022-09-17T19:38:01;15.80;99.90
851;DHT22;412;51.400;7.480;2022-09-17T19:40:26;15.90;99.90
851;DHT22;412;51.400;7.480;2022-09-17T19:42:53;15.70;99.90
851;DHT22;412;51.400;7.480;2022-09-17T19:45:21;15.70;99.90
851;DHT22;412;51.400;7.480;2022-09-17T19:47:47;15.60;99.90
851;DHT22;412;51.400;7.480;2022-09-17T19:50:12;15.60;99.90
851;DHT22;412;51.400;7.480;2022-09-17T19:52:39;15.60;99.90
851;DHT22;412;51.400;7.480;2022-09-17T19:55:06;15.60;99.90
851;DHT22;412;51.400;7.480;2022-09-17T19:57:31;15.60;99.90
851;DHT22;412;51.400;7.480;2022-09-17T19:59:57;15.60;99.90
851;DHT22;412;51.400;7.480;2022-09-17T20:02:23;15.60;99.90
851;DHT22;412;51.400;7.480;2022-09-17T20:04:49;15.60;99.90
851;DHT22;412;51.400;7.480;2022-09-17T20:07:15;15.60;99.90
851;DHT22;412;51.400;7.480;2022-09-17T20:09:40;15.60;99.90
851;DHT22;412;51.400;7.480;2022-09-17T20:12:06;15.60;99.90
851;DHT22;412;51.400;7.480;2022-09-17T20:14:32;15.60;99.90
851;DHT22;412;51.400;7.480;2022-09-17T20:16:58;15.60;99.90
851;DHT22;412;51.400;7.480;2022-09-17T20:19:24;15.60;99.90
851;DHT22;412;51.400;7.480;2022-09-17T20:21:50;15.60;99.90
851;DHT22;412;51.400;7.480;2022-09-17T20:24:16;15.60;99.90
851;DHT22;412;51.400;7.480;2022-09-17T20:26:41;15.60;99.90
851;DHT22;412;51.400;7.480;2022-09-17T20:29:07;15.70;99.90
851;DHT22;412;51.400;7.480;2022-09-17T20:31:33;15.70;99.90
851;DHT22;412;51.400;7.480;2022-09-17T20:34:01;15.70;99.90